Terminal Aerodrome Forecast
Issued by NWS Louisville, KY

Home | Current Version | Previous Version | Text Only | Print | Product List | Glossary On
Versions: 1 2 3 4 5 6 7 8 9 10 11 12 13 14 15 16 17 18 19 20 21 22 23 24 25 26 27 28 29 30 31
000
FTUS43 KLMK 311700
TAFSDF
TAF
KSDF 311726Z 3118/0124 18008KT P6SM VCSH BKN020 OVC050
      TEMPO 3120/3123 SCT025
     FM010200 17005KT P6SM OVC020
     FM011400 23011KT P6SM BKN035=

USA.gov is the U.S. government's official web portal to all federal, state and local government web resources and services.